sensor_id;sensor_type;location;lat;lon;timestamp;temperature;humidity
64951;DHT22;51482;47.014;7.652;2023-03-01T00:01:04;0.90;99.90
64951;DHT22;51482;47.014;7.652;2023-03-01T00:03:29;0.90;99.90
64951;DHT22;51482;47.014;7.652;2023-03-01T00:05:55;1.30;99.90
64951;DHT22;51482;47.014;7.652;2023-03-01T00:08:21;1.00;99.90
64951;DHT22;51482;47.014;7.652;2023-03-01T00:10:46;0.80;99.90
64951;DHT22;51482;47.014;7.652;2023-03-01T00:13:12;1.60;99.90
64951;DHT22;51482;47.014;7.652;2023-03-01T00:15:39;1.60;99.90
64951;DHT22;51482;47.014;7.652;2023-03-01T00:18:05;1.20;99.90
64951;DHT22;51482;47.014;7.652;2023-03-01T00:20:30;0.90;99.90
64951;DHT22;51482;47.014;7.652;2023-03-01T00:22:56;1.50;99.90
64951;DHT22;51482;47.014;7.652;2023-03-01T00:25:21;1.60;99.90
64951;DHT22;51482;47.014;7.652;2023-03-01T00:27:47;1.70;99.90
64951;DHT22;51482;47.014;7.652;2023-03-01T00:30:14;1.10;99.90
64951;DHT22;51482;47.014;7.652;2023-03-01T00:32:40;1.40;99.90
64951;DHT22;51482;47.014;7.652;2023-03-01T00:35:06;1.40;99.90
64951;DHT22;51482;47.014;7.652;2023-03-01T00:37:31;0.80;99.90
64951;DHT22;51482;47.014;7.652;2023-03-01T00:39:57;1.40;99.90
64951;DHT22;51482;47.014;7.652;2023-03-01T00:42:22;0.90;99.90
64951;DHT22;51482;47.014;7.652;2023-03-01T00:44:48;0.70;99.90
64951;DHT22;51482;47.014;7.652;2023-03-01T00:47:14;0.80;99.90
64951;DHT22;51482;47.014;7.652;2023-03-01T00:49:40;0.60;99.90
64951;DHT22;51482;47.014;7.652;2023-03-01T00:52:05;1.40;99.90
64951;DHT22;51482;47.014;7.652;2023-03-01T00:54:31;1.40;99.90
64951;DHT22;51482;47.014;7.652;2023-03-01T00:56:57;0.60;99.90
64951;DHT22;51482;47.014;7.652;2023-03-01T00:59:22;0.90;99.90
64951;DHT22;51482;47.014;7.652;2023-03-01T01:01:48;0.60;99.90
64951;DHT22;51482;47.014;7.652;2023-03-01T01:04:13;0.80;99.90
64951;DHT22;51482;47.014;7.652;2023-03-01T01:06:43;1.30;99.90
64951;DHT22;51482;47.014;7.652;2023-03-01T01:09:11;0.80;99.90
64951;DHT22;51482;47.014;7.652;2023-03-01T01:11:45;0.80;99.90
64951;DHT22;51482;47.014;7.652;2023-03-01T01:14:11;0.70;99.90
64951;DHT22;51482;47.014;7.652;2023-03-01T01:16:36;1.00;99.90
64951;DHT22;51482;47.014;7.652;2023-03-01T01:19:02;0.80;99.90
64951;DHT22;51482;47.014;7.652;2023-03-01T01:21:29;0.70;99.90
64951;DHT22;51482;47.014;7.652;2023-03-01T01:23:55;0.80;99.90
64951;DHT22;51482;47.014;7.652;2023-03-01T01:26:23;0.60;99.90
64951;DHT22;51482;47.014;7.652;2023-03-01T01:28:50;1.50;99.90
64951;DHT22;51482;47.014;7.652;2023-03-01T01:31:16;1.40;99.90
64951;DHT22;51482;47.014;7.652;2023-03-01T01:33:42;0.90;99.90
64951;DHT22;51482;47.014;7.652;2023-03-01T01:36:08;1.20;99.90
64951;DHT22;51482;47.014;7.652;2023-03-01T01:38:35;1.40;99.90
64951;DHT22;51482;47.014;7.652;2023-03-01T01:41:01;0.80;99.90
64951;DHT22;51482;47.014;7.652;2023-03-01T01:43:36;1.70;99.90
64951;DHT22;51482;47.014;7.652;2023-03-01T01:46:20;1.00;99.90
64951;DHT22;51482;47.014;7.652;2023-03-01T01:48:52;0.90;99.90
64951;DHT22;51482;47.014;7.652;2023-03-01T01:51:23;1.60;99.90
64951;DHT22;51482;47.014;7.652;2023-03-01T01:53:55;1.60;99.90
64951;DHT22;51482;47.014;7.652;2023-03-01T01:56:23;0.80;99.90
64951;DHT22;51482;47.014;7.652;2023-03-01T01:58:49;1.10;99.90
64951;DHT22;51482;47.014;7.652;2023-03-01T02:01:15;1.50;99.90
64951;DHT22;51482;47.014;7.652;2023-03-01T02:03:44;0.90;99.90
64951;DHT22;51482;47.014;7.652;2023-03-01T02:08:40;1.00;99.90
64951;DHT22;51482;47.014;7.652;2023-03-01T02:11:08;1.00;99.90
64951;DHT22;51482;47.014;7.652;2023-03-01T02:13:34;0.70;99.90
64951;DHT22;51482;47.014;7.652;2023-03-01T02:16:04;1.50;99.90
64951;DHT22;51482;47.014;7.652;2023-03-01T02:18:30;1.60;99.90
64951;DHT22;51482;47.014;7.652;2023-03-01T02:23:42;0.80;99.90
64951;DHT22;51482;47.014;7.652;2023-03-01T02:26:23;1.40;99.90
64951;DHT22;51482;47.014;7.652;2023-03-01T02:28:51;1.50;99.90
64951;DHT22;51482;47.014;7.652;2023-03-01T02:31:19;1.40;99.90
64951;DHT22;51482;47.014;7.652;2023-03-01T02:34:05;0.80;99.90
64951;DHT22;51482;47.014;7.652;2023-03-01T02:36:36;0.90;99.90
64951;DHT22;51482;47.014;7.652;2023-03-01T02:39:04;0.70;99.90
64951;DHT22;51482;47.014;7.652;2023-03-01T02:41:35;0.60;99.90
64951;DHT22;51482;47.014;7.652;2023-03-01T02:44:02;0.50;99.90
64951;DHT22;51482;47.014;7.652;2023-03-01T02:46:27;1.10;99.90
64951;DHT22;51482;47.014;7.652;2023-03-01T02:48:58;0.70;99.90
64951;DHT22;51482;47.014;7.652;2023-03-01T02:51:47;-0.10;99.90
64951;DHT22;51482;47.014;7.652;2023-03-01T02:54:34;0.60;99.90
64951;DHT22;51482;47.014;7.652;2023-03-01T02:57:02;0.90;99.90
64951;DHT22;51482;47.014;7.652;2023-03-01T02:59:31;1.00;99.90
64951;DHT22;51482;47.014;7.652;2023-03-01T03:02:00;1.00;99.90
64951;DHT22;51482;47.014;7.652;2023-03-01T03:04:26;1.30;99.90
64951;DHT22;51482;47.014;7.652;2023-03-01T03:06:51;1.30;99.90
64951;DHT22;51482;47.014;7.652;2023-03-01T03:09:18;1.10;99.90
64951;DHT22;51482;47.014;7.652;2023-03-01T03:11:44;1.30;99.90
64951;DHT22;51482;47.014;7.652;2023-03-01T03:14:11;0.80;99.90
64951;DHT22;51482;47.014;7.652;2023-03-01T03:16:45;0.60;99.90
64951;DHT22;51482;47.014;7.652;2023-03-01T03:19:11;1.20;99.90
64951;DHT22;51482;47.014;7.652;2023-03-01T03:21:37;1.10;99.90
64951;DHT22;51482;47.014;7.652;2023-03-01T03:24:03;0.70;99.90
64951;DHT22;51482;47.014;7.652;2023-03-01T03:26:29;0.70;99.90
64951;DHT22;51482;47.014;7.652;2023-03-01T03:28:55;0.40;99.90
64951;DHT22;51482;47.014;7.652;2023-03-01T03:31:20;0.60;99.90
64951;DHT22;51482;47.014;7.652;2023-03-01T03:33:46;0.70;99.90
64951;DHT22;51482;47.014;7.652;2023-03-01T03:36:23;0.60;99.90
64951;DHT22;51482;47.014;7.652;2023-03-01T03:38:49;1.30;99.90
64951;DHT22;51482;47.014;7.652;2023-03-01T03:41:15;1.30;99.90
64951;DHT22;51482;47.014;7.652;2023-03-01T03:43:41;0.50;99.90
64951;DHT22;51482;47.014;7.652;2023-03-01T03:46:09;1.30;99.90
64951;DHT22;51482;47.014;7.652;2023-03-01T03:48:41;1.10;99.90
64951;DHT22;51482;47.014;7.652;2023-03-01T03:51:10;0.50;99.90
64951;DHT22;51482;47.014;7.652;2023-03-01T03:53:36;0.90;99.90
64951;DHT22;51482;47.014;7.652;2023-03-01T03:56:01;0.60;99.90
64951;DHT22;51482;47.014;7.652;2023-03-01T03:58:27;1.20;99.90
64951;DHT22;51482;47.014;7.652;2023-03-01T04:00:55;1.20;99.90
64951;DHT22;51482;47.014;7.652;2023-03-01T04:03:22;0.40;99.90
64951;DHT22;51482;47.014;7.652;2023-03-01T04:05:49;1.30;99.90
64951;DHT22;51482;47.014;7.652;2023-03-01T04:08:16;1.30;99.90
64951;DHT22;51482;47.014;7.652;2023-03-01T04:10:46;0.50;99.90
64951;DHT22;51482;47.014;7.652;2023-03-01T04:13:16;0.20;99.90
64951;DHT22;51482;47.014;7.652;2023-03-01T04:15:41;0.40;99.90
64951;DHT22;51482;47.014;7.652;2023-03-01T04:18:15;0.70;99.90
64951;DHT22;51482;47.014;7.652;2023-03-01T04:20:41;0.70;99.90
64951;DHT22;51482;47.014;7.652;2023-03-01T04:23:11;0.40;99.90
64951;DHT22;51482;47.014;7.652;2023-03-01T04:25:46;0.50;99.90
64951;DHT22;51482;47.014;7.652;2023-03-01T04:28:12;1.20;99.90
64951;DHT22;51482;47.014;7.652;2023-03-01T04:30:38;0.60;99.90
64951;DHT22;51482;47.014;7.652;2023-03-01T04:33:06;0.40;99.90
64951;DHT22;51482;47.014;7.652;2023-03-01T04:35:32;0.60;99.90
64951;DHT22;51482;47.014;7.652;2023-03-01T04:37:58;0.60;99.90
64951;DHT22;51482;47.014;7.652;2023-03-01T04:40:24;1.30;99.90
64951;DHT22;51482;47.014;7.652;2023-03-01T04:42:50;0.80;99.90
64951;DHT22;51482;47.014;7.652;2023-03-01T04:45:16;1.30;99.90
64951;DHT22;51482;47.014;7.652;2023-03-01T04:47:43;0.00;99.90
64951;DHT22;51482;47.014;7.652;2023-03-01T04:50:11;0.50;99.90
64951;DHT22;51482;47.014;7.652;2023-03-01T04:52:37;1.20;99.90
64951;DHT22;51482;47.014;7.652;2023-03-01T04:55:04;0.50;99.90
64951;DHT22;51482;47.014;7.652;2023-03-01T04:57:33;0.80;99.90
64951;DHT22;51482;47.014;7.652;2023-03-01T04:59:59;0.80;99.90
64951;DHT22;51482;47.014;7.652;2023-03-01T05:02:24;0.30;99.90
64951;DHT22;51482;47.014;7.652;2023-03-01T05:04:50;1.10;99.90
64951;DHT22;51482;47.014;7.652;2023-03-01T05:07:15;0.70;99.90
64951;DHT22;51482;47.014;7.652;2023-03-01T05:09:45;0.70;99.90
64951;DHT22;51482;47.014;7.652;2023-03-01T05:12:12;0.80;99.90
64951;DHT22;51482;47.014;7.652;2023-03-01T05:14:37;1.40;99.90
64951;DHT22;51482;47.014;7.652;2023-03-01T05:17:04;0.70;99.90
64951;DHT22;51482;47.014;7.652;2023-03-01T05:19:30;0.60;99.90
64951;DHT22;51482;47.014;7.652;2023-03-01T05:21:57;1.40;99.90
64951;DHT22;51482;47.014;7.652;2023-03-01T05:24:33;1.20;99.90
64951;DHT22;51482;47.014;7.652;2023-03-01T05:27:01;0.70;99.90
64951;DHT22;51482;47.014;7.652;2023-03-01T05:29:29;1.00;99.90
64951;DHT22;51482;47.014;7.652;2023-03-01T05:32:00;0.90;99.90
64951;DHT22;51482;47.014;7.652;2023-03-01T05:34:31;0.70;99.90
64951;DHT22;51482;47.014;7.652;2023-03-01T05:36:57;0.50;99.90
64951;DHT22;51482;47.014;7.652;2023-03-01T05:39:24;1.20;99.90
64951;DHT22;51482;47.014;7.652;2023-03-01T05:41:55;0.70;99.90
64951;DHT22;51482;47.014;7.652;2023-03-01T05:44:21;1.10;99.90
64951;DHT22;51482;47.014;7.652;2023-03-01T05:46:47;0.10;99.90
64951;DHT22;51482;47.014;7.652;2023-03-01T05:49:13;0.70;99.90
64951;DHT22;51482;47.014;7.652;2023-03-01T05:51:43;0.60;99.90
64951;DHT22;51482;47.014;7.652;2023-03-01T05:54:12;0.70;99.90
64951;DHT22;51482;47.014;7.652;2023-03-01T05:56:37;1.00;99.90
64951;DHT22;51482;47.014;7.652;2023-03-01T05:59:04;0.00;99.90
64951;DHT22;51482;47.014;7.652;2023-03-01T06:01:34;1.10;99.90
64951;DHT22;51482;47.014;7.652;2023-03-01T06:04:00;0.60;99.90
64951;DHT22;51482;47.014;7.652;2023-03-01T06:06:26;0.90;99.90
64951;DHT22;51482;47.014;7.652;2023-03-01T06:08:52;0.80;99.90
64951;DHT22;51482;47.014;7.652;2023-03-01T06:11:18;0.90;99.90
64951;DHT22;51482;47.014;7.652;2023-03-01T06:13:44;0.40;99.90
64951;DHT22;51482;47.014;7.652;2023-03-01T06:16:10;0.60;99.90
64951;DHT22;51482;47.014;7.652;2023-03-01T06:18:37;0.10;99.90
64951;DHT22;51482;47.014;7.652;2023-03-01T06:21:03;0.50;99.90
64951;DHT22;51482;47.014;7.652;2023-03-01T06:23:29;1.40;99.90
64951;DHT22;51482;47.014;7.652;2023-03-01T06:25:55;0.70;99.90
64951;DHT22;51482;47.014;7.652;2023-03-01T06:28:21;1.00;99.90
64951;DHT22;51482;47.014;7.652;2023-03-01T06:30:46;0.60;99.90
64951;DHT22;51482;47.014;7.652;2023-03-01T06:33:12;0.60;99.90
64951;DHT22;51482;47.014;7.652;2023-03-01T06:35:38;0.70;99.90
64951;DHT22;51482;47.014;7.652;2023-03-01T06:38:04;0.50;99.90
64951;DHT22;51482;47.014;7.652;2023-03-01T06:40:30;1.30;99.90
64951;DHT22;51482;47.014;7.652;2023-03-01T06:42:57;1.10;99.90
64951;DHT22;51482;47.014;7.652;2023-03-01T06:45:23;1.00;99.90
64951;DHT22;51482;47.014;7.652;2023-03-01T06:47:49;0.40;99.90
64951;DHT22;51482;47.014;7.652;2023-03-01T06:50:15;1.20;99.90
64951;DHT22;51482;47.014;7.652;2023-03-01T06:52:41;0.60;99.90
64951;DHT22;51482;47.014;7.652;2023-03-01T06:55:09;1.10;99.90
64951;DHT22;51482;47.014;7.652;2023-03-01T06:57:34;0.70;99.90
64951;DHT22;51482;47.014;7.652;2023-03-01T07:00:00;1.10;99.90
64951;DHT22;51482;47.014;7.652;2023-03-01T07:02:26;0.40;99.90
64951;DHT22;51482;47.014;7.652;2023-03-01T07:04:52;0.90;99.90
64951;DHT22;51482;47.014;7.652;2023-03-01T07:07:18;1.00;99.90
64951;DHT22;51482;47.014;7.652;2023-03-01T07:09:44;1.20;99.90
64951;DHT22;51482;47.014;7.652;2023-03-01T07:12:10;0.80;99.90
64951;DHT22;51482;47.014;7.652;2023-03-01T07:14:36;0.60;99.90
64951;DHT22;51482;47.014;7.652;2023-03-01T07:17:01;0.70;99.90
64951;DHT22;51482;47.014;7.652;2023-03-01T07:19:27;1.30;99.90
64951;DHT22;51482;47.014;7.652;2023-03-01T07:21:52;1.30;99.90
64951;DHT22;51482;47.014;7.652;2023-03-01T07:24:18;1.30;99.90
64951;DHT22;51482;47.014;7.652;2023-03-01T07:26:44;1.30;99.90
64951;DHT22;51482;47.014;7.652;2023-03-01T07:29:10;0.90;99.90
64951;DHT22;51482;47.014;7.652;2023-03-01T07:31:36;0.70;99.90
64951;DHT22;51482;47.014;7.652;2023-03-01T07:34:02;0.60;99.90
64951;DHT22;51482;47.014;7.652;2023-03-01T07:36:28;0.40;99.90
64951;DHT22;51482;47.014;7.652;2023-03-01T07:38:53;0.80;99.90
64951;DHT22;51482;47.014;7.652;2023-03-01T07:41:21;1.30;99.90
64951;DHT22;51482;47.014;7.652;2023-03-01T07:43:47;0.20;99.90
64951;DHT22;51482;47.014;7.652;2023-03-01T07:46:12;1.30;99.90
64951;DHT22;51482;47.014;7.652;2023-03-01T07:48:38;0.80;99.90
64951;DHT22;51482;47.014;7.652;2023-03-01T07:51:05;1.60;99.90
64951;DHT22;51482;47.014;7.652;2023-03-01T07:53:31;0.70;99.90
64951;DHT22;51482;47.014;7.652;2023-03-01T07:56:08;0.10;99.90
64951;DHT22;51482;47.014;7.652;2023-03-01T07:58:35;0.70;99.90
64951;DHT22;51482;47.014;7.652;2023-03-01T08:01:05;0.80;99.90
64951;DHT22;51482;47.014;7.652;2023-03-01T08:03:32;0.80;99.90
64951;DHT22;51482;47.014;7.652;2023-03-01T08:06:02;1.00;99.90
64951;DHT22;51482;47.014;7.652;2023-03-01T08:08:28;1.10;99.90
64951;DHT22;51482;47.014;7.652;2023-03-01T08:10:56;0.80;99.90
64951;DHT22;51482;47.014;7.652;2023-03-01T08:13:22;1.40;99.90
64951;DHT22;51482;47.014;7.652;2023-03-01T08:15:49;1.00;99.90
64951;DHT22;51482;47.014;7.652;2023-03-01T08:18:15;0.70;99.90
64951;DHT22;51482;47.014;7.652;2023-03-01T08:20:41;0.90;99.90
64951;DHT22;51482;47.014;7.652;2023-03-01T08:23:06;1.00;99.90
64951;DHT22;51482;47.014;7.652;2023-03-01T08:25:35;1.50;99.90
64951;DHT22;51482;47.014;7.652;2023-03-01T08:28:00;1.30;99.90
64951;DHT22;51482;47.014;7.652;2023-03-01T08:30:26;1.50;99.90
64951;DHT22;51482;47.014;7.652;2023-03-01T08:32:52;0.50;99.90
64951;DHT22;51482;47.014;7.652;2023-03-01T08:35:18;1.20;99.90
64951;DHT22;51482;47.014;7.652;2023-03-01T08:37:44;1.60;99.90
64951;DHT22;51482;47.014;7.652;2023-03-01T08:40:13;0.20;99.90
64951;DHT22;51482;47.014;7.652;2023-03-01T08:42:45;1.20;99.90
64951;DHT22;51482;47.014;7.652;2023-03-01T08:45:12;0.90;99.90
64951;DHT22;51482;47.014;7.652;2023-03-01T08:47:43;1.50;99.90
64951;DHT22;51482;47.014;7.652;2023-03-01T08:50:10;1.20;99.90
64951;DHT22;51482;47.014;7.652;2023-03-01T08:52:35;1.30;99.90
64951;DHT22;51482;47.014;7.652;2023-03-01T08:55:01;1.70;99.90
64951;DHT22;51482;47.014;7.652;2023-03-01T08:57:26;1.90;99.90
64951;DHT22;51482;47.014;7.652;2023-03-01T08:59:52;1.70;99.90
64951;DHT22;51482;47.014;7.652;2023-03-01T09:02:18;1.80;99.90
64951;DHT22;51482;47.014;7.652;2023-03-01T09:04:44;1.50;99.90
64951;DHT22;51482;47.014;7.652;2023-03-01T09:07:10;1.80;99.90
64951;DHT22;51482;47.014;7.652;2023-03-01T09:09:36;1.20;99.90
64951;DHT22;51482;47.014;7.652;2023-03-01T09:12:03;1.80;99.90
64951;DHT22;51482;47.014;7.652;2023-03-01T09:14:29;1.90;99.90
64951;DHT22;51482;47.014;7.652;2023-03-01T09:16:55;1.70;99.90
64951;DHT22;51482;47.014;7.652;2023-03-01T09:19:21;1.80;99.90
64951;DHT22;51482;47.014;7.652;2023-03-01T09:21:46;1.70;99.90
64951;DHT22;51482;47.014;7.652;2023-03-01T09:24:20;1.80;99.90
64951;DHT22;51482;47.014;7.652;2023-03-01T09:26:47;1.50;99.90
64951;DHT22;51482;47.014;7.652;2023-03-01T09:29:13;1.70;99.90
64951;DHT22;51482;47.014;7.652;2023-03-01T09:31:39;1.70;99.90
64951;DHT22;51482;47.014;7.652;2023-03-01T09:34:05;1.40;99.90
64951;DHT22;51482;47.014;7.652;2023-03-01T09:36:31;1.90;99.90
64951;DHT22;51482;47.014;7.652;2023-03-01T09:38:58;0.60;99.90
64951;DHT22;51482;47.014;7.652;2023-03-01T09:41:50;1.20;99.90
64951;DHT22;51482;47.014;7.652;2023-03-01T09:44:48;1.60;99.90
64951;DHT22;51482;47.014;7.652;2023-03-01T09:47:19;1.40;99.90
64951;DHT22;51482;47.014;7.652;2023-03-01T09:49:57;2.10;99.90
64951;DHT22;51482;47.014;7.652;2023-03-01T09:52:40;1.70;99.90
64951;DHT22;51482;47.014;7.652;2023-03-01T09:55:15;1.50;99.90
64951;DHT22;51482;47.014;7.652;2023-03-01T09:57:50;1.60;99.90
64951;DHT22;51482;47.014;7.652;2023-03-01T10:02:57;1.60;99.90
64951;DHT22;51482;47.014;7.652;2023-03-01T10:05:36;2.10;99.90
64951;DHT22;51482;47.014;7.652;2023-03-01T10:08:24;1.50;99.90
64951;DHT22;51482;47.014;7.652;2023-03-01T10:10:51;1.10;99.90
64951;DHT22;51482;47.014;7.652;2023-03-01T10:13:25;1.40;99.90
64951;DHT22;51482;47.014;7.652;2023-03-01T10:16:17;1.60;99.90
64951;DHT22;51482;47.014;7.652;2023-03-01T10:18:45;2.10;99.90
64951;DHT22;51482;47.014;7.652;2023-03-01T10:21:15;2.20;99.90
64951;DHT22;51482;47.014;7.652;2023-03-01T10:23:42;1.60;99.90
64951;DHT22;51482;47.014;7.652;2023-03-01T10:29:05;1.50;99.90
64951;DHT22;51482;47.014;7.652;2023-03-01T10:31:53;2.10;99.90
64951;DHT22;51482;47.014;7.652;2023-03-01T10:34:31;1.40;99.90
64951;DHT22;51482;47.014;7.652;2023-03-01T10:37:16;2.00;99.90
64951;DHT22;51482;47.014;7.652;2023-03-01T10:40:14;2.30;99.90
64951;DHT22;51482;47.014;7.652;2023-03-01T10:43:05;1.70;99.90
64951;DHT22;51482;47.014;7.652;2023-03-01T10:45:42;1.70;99.90
64951;DHT22;51482;47.014;7.652;2023-03-01T10:48:23;2.20;99.90
64951;DHT22;51482;47.014;7.652;2023-03-01T10:51:04;2.40;99.90
64951;DHT22;51482;47.014;7.652;2023-03-01T10:53:49;1.70;99.90
64951;DHT22;51482;47.014;7.652;2023-03-01T10:56:17;2.20;99.90
64951;DHT22;51482;47.014;7.652;2023-03-01T10:59:22;2.40;99.90
64951;DHT22;51482;47.014;7.652;2023-03-01T11:04:57;1.90;99.90
64951;DHT22;51482;47.014;7.652;2023-03-01T11:07:23;2.70;99.90
64951;DHT22;51482;47.014;7.652;2023-03-01T11:09:49;3.00;99.90
64951;DHT22;51482;47.014;7.652;2023-03-01T11:12:16;2.30;99.90
64951;DHT22;51482;47.014;7.652;2023-03-01T11:14:50;2.70;99.90
64951;DHT22;51482;47.014;7.652;2023-03-01T11:17:28;2.60;99.90
64951;DHT22;51482;47.014;7.652;2023-03-01T11:22:33;1.90;99.90
64951;DHT22;51482;47.014;7.652;2023-03-01T11:25:00;2.70;99.90
64951;DHT22;51482;47.014;7.652;2023-03-01T11:27:31;2.70;99.90
64951;DHT22;51482;47.014;7.652;2023-03-01T11:32:25;2.70;99.90
64951;DHT22;51482;47.014;7.652;2023-03-01T11:35:00;2.70;99.90
64951;DHT22;51482;47.014;7.652;2023-03-01T11:43:59;2.40;99.90
64951;DHT22;51482;47.014;7.652;2023-03-01T11:52:24;2.50;99.90
64951;DHT22;51482;47.014;7.652;2023-03-01T11:55:07;2.60;99.90
64951;DHT22;51482;47.014;7.652;2023-03-01T12:03:14;3.40;99.90
64951;DHT22;51482;47.014;7.652;2023-03-01T12:11:12;1.90;99.90
64951;DHT22;51482;47.014;7.652;2023-03-01T12:16:40;2.50;99.90
64951;DHT22;51482;47.014;7.652;2023-03-01T12:19:15;2.50;99.90
64951;DHT22;51482;47.014;7.652;2023-03-01T12:21:49;2.40;99.90
64951;DHT22;51482;47.014;7.652;2023-03-01T12:25:02;3.00;99.90
64951;DHT22;51482;47.014;7.652;2023-03-01T12:39:04;3.40;99.90
64951;DHT22;51482;47.014;7.652;2023-03-01T12:42:00;3.10;99.90
64951;DHT22;51482;47.014;7.652;2023-03-01T12:44:47;2.50;99.90
64951;DHT22;51482;47.014;7.652;2023-03-01T12:50:29;2.60;99.90
64951;DHT22;51482;47.014;7.652;2023-03-01T12:53:00;2.70;99.90
64951;DHT22;51482;47.014;7.652;2023-03-01T12:58:13;2.70;99.90
64951;DHT22;51482;47.014;7.652;2023-03-01T13:06:19;3.00;99.90
64951;DHT22;51482;47.014;7.652;2023-03-01T13:11:32;2.50;99.90
64951;DHT22;51482;47.014;7.652;2023-03-01T13:16:45;2.50;99.90
64951;DHT22;51482;47.014;7.652;2023-03-01T13:19:19;3.20;99.90
64951;DHT22;51482;47.014;7.652;2023-03-01T13:21:47;2.60;99.90
64951;DHT22;51482;47.014;7.652;2023-03-01T13:24:35;2.30;99.90
64951;DHT22;51482;47.014;7.652;2023-03-01T13:29:51;2.70;99.90
64951;DHT22;51482;47.014;7.652;2023-03-01T13:32:25;3.30;99.90
64951;DHT22;51482;47.014;7.652;2023-03-01T13:34:58;2.70;99.90
64951;DHT22;51482;47.014;7.652;2023-03-01T13:37:27;3.30;99.90
64951;DHT22;51482;47.014;7.652;2023-03-01T13:39:55;3.30;99.90
64951;DHT22;51482;47.014;7.652;2023-03-01T13:42:39;3.30;99.90
64951;DHT22;51482;47.014;7.652;2023-03-01T13:45:21;3.30;99.90
64951;DHT22;51482;47.014;7.652;2023-03-01T13:47:54;2.60;99.90
64951;DHT22;51482;47.014;7.652;2023-03-01T13:50:25;2.40;99.90
64951;DHT22;51482;47.014;7.652;2023-03-01T13:52:55;3.10;99.90
64951;DHT22;51482;47.014;7.652;2023-03-01T13:55:27;3.10;99.90
64951;DHT22;51482;47.014;7.652;2023-03-01T13:58:00;3.10;99.90
64951;DHT22;51482;47.014;7.652;2023-03-01T14:00:32;2.50;99.90
64951;DHT22;51482;47.014;7.652;2023-03-01T14:05:32;2.50;99.90
64951;DHT22;51482;47.014;7.652;2023-03-01T14:07:58;2.40;99.90
64951;DHT22;51482;47.014;7.652;2023-03-01T14:10:31;2.90;99.90
64951;DHT22;51482;47.014;7.652;2023-03-01T14:16:34;2.50;99.90
64951;DHT22;51482;47.014;7.652;2023-03-01T14:21:46;2.70;99.90
64951;DHT22;51482;47.014;7.652;2023-03-01T14:24:20;3.10;99.90
64951;DHT22;51482;47.014;7.652;2023-03-01T14:26:48;3.10;99.90
64951;DHT22;51482;47.014;7.652;2023-03-01T14:29:25;1.80;99.90
64951;DHT22;51482;47.014;7.652;2023-03-01T14:31:50;2.40;99.90
64951;DHT22;51482;47.014;7.652;2023-03-01T14:34:21;2.40;99.90
64951;DHT22;51482;47.014;7.652;2023-03-01T14:36:47;2.20;99.90
64951;DHT22;51482;47.014;7.652;2023-03-01T14:39:18;2.70;99.90
64951;DHT22;51482;47.014;7.652;2023-03-01T14:41:44;3.10;99.90
64951;DHT22;51482;47.014;7.652;2023-03-01T14:44:23;2.30;99.90
64951;DHT22;51482;47.014;7.652;2023-03-01T14:46:53;2.40;99.90
64951;DHT22;51482;47.014;7.652;2023-03-01T14:49:24;3.00;99.90
64951;DHT22;51482;47.014;7.652;2023-03-01T14:51:54;3.10;99.90
64951;DHT22;51482;47.014;7.652;2023-03-01T14:54:24;3.20;99.90
64951;DHT22;51482;47.014;7.652;2023-03-01T14:56:50;3.00;99.90
64951;DHT22;51482;47.014;7.652;2023-03-01T14:59:22;3.40;99.90
64951;DHT22;51482;47.014;7.652;2023-03-01T15:01:49;2.90;99.90
64951;DHT22;51482;47.014;7.652;2023-03-01T15:04:16;2.80;99.90
64951;DHT22;51482;47.014;7.652;2023-03-01T15:06:42;2.60;99.90
64951;DHT22;51482;47.014;7.652;2023-03-01T15:09:13;3.20;99.90
64951;DHT22;51482;47.014;7.652;2023-03-01T15:11:40;2.60;99.90
64951;DHT22;51482;47.014;7.652;2023-03-01T15:16:54;2.80;99.90
64951;DHT22;51482;47.014;7.652;2023-03-01T15:19:27;3.30;99.90
64951;DHT22;51482;47.014;7.652;2023-03-01T15:21:54;2.70;99.90
64951;DHT22;51482;47.014;7.652;2023-03-01T15:24:24;2.70;99.90
64951;DHT22;51482;47.014;7.652;2023-03-01T15:26:58;3.00;99.90
64951;DHT22;51482;47.014;7.652;2023-03-01T15:29:29;2.90;99.90
64951;DHT22;51482;47.014;7.652;2023-03-01T15:32:01;2.90;99.90
64951;DHT22;51482;47.014;7.652;2023-03-01T15:34:31;2.40;99.90
64951;DHT22;51482;47.014;7.652;2023-03-01T15:36:59;3.00;99.90
64951;DHT22;51482;47.014;7.652;2023-03-01T15:39:52;3.10;99.90
64951;DHT22;51482;47.014;7.652;2023-03-01T15:42:12;3.20;99.90
64951;DHT22;51482;47.014;7.652;2023-03-01T15:44:40;3.20;99.90
64951;DHT22;51482;47.014;7.652;2023-03-01T15:47:29;3.00;99.90
64951;DHT22;51482;47.014;7.652;2023-03-01T15:49:55;2.40;99.90
64951;DHT22;51482;47.014;7.652;2023-03-01T15:52:28;3.00;99.90
64951;DHT22;51482;47.014;7.652;2023-03-01T15:54:59;3.00;99.90
64951;DHT22;51482;47.014;7.652;2023-03-01T15:57:25;2.50;99.90
64951;DHT22;51482;47.014;7.652;2023-03-01T15:59:51;2.00;99.90
64951;DHT22;51482;47.014;7.652;2023-03-01T16:02:17;1.90;99.90
64951;DHT22;51482;47.014;7.652;2023-03-01T16:04:46;2.30;99.90
64951;DHT22;51482;47.014;7.652;2023-03-01T16:07:12;2.60;99.90
64951;DHT22;51482;47.014;7.652;2023-03-01T16:09:37;2.20;99.90
64951;DHT22;51482;47.014;7.652;2023-03-01T16:12:03;2.50;99.90
64951;DHT22;51482;47.014;7.652;2023-03-01T16:14:29;2.20;99.90
64951;DHT22;51482;47.014;7.652;2023-03-01T16:16:55;2.30;99.90
64951;DHT22;51482;47.014;7.652;2023-03-01T16:19:21;2.00;99.90
64951;DHT22;51482;47.014;7.652;2023-03-01T16:21:46;2.10;99.90
64951;DHT22;51482;47.014;7.652;2023-03-01T16:24:14;2.20;99.90
64951;DHT22;51482;47.014;7.652;2023-03-01T16:26:39;2.20;99.90
64951;DHT22;51482;47.014;7.652;2023-03-01T16:29:05;2.20;99.90
64951;DHT22;51482;47.014;7.652;2023-03-01T16:31:31;2.50;99.90
64951;DHT22;51482;47.014;7.652;2023-03-01T16:33:58;2.30;99.90
64951;DHT22;51482;47.014;7.652;2023-03-01T16:36:26;2.30;99.90
64951;DHT22;51482;47.014;7.652;2023-03-01T16:38:54;2.40;99.90
64951;DHT22;51482;47.014;7.652;2023-03-01T16:41:22;2.40;99.90
64951;DHT22;51482;47.014;7.652;2023-03-01T16:43:48;1.60;99.90
64951;DHT22;51482;47.014;7.652;2023-03-01T16:46:19;2.20;99.90
64951;DHT22;51482;47.014;7.652;2023-03-01T16:48:46;2.70;99.90
64951;DHT22;51482;47.014;7.652;2023-03-01T16:51:12;1.60;99.90
64951;DHT22;51482;47.014;7.652;2023-03-01T16:53:38;2.30;99.90
64951;DHT22;51482;47.014;7.652;2023-03-01T16:56:07;2.40;99.90
64951;DHT22;51482;47.014;7.652;2023-03-01T16:58:33;2.10;99.90
64951;DHT22;51482;47.014;7.652;2023-03-01T17:01:05;2.00;99.90
64951;DHT22;51482;47.014;7.652;2023-03-01T17:03:31;2.80;99.90
64951;DHT22;51482;47.014;7.652;2023-03-01T17:05:56;2.80;99.90
64951;DHT22;51482;47.014;7.652;2023-03-01T17:08:22;2.30;99.90
64951;DHT22;51482;47.014;7.652;2023-03-01T17:10:47;2.50;99.90
64951;DHT22;51482;47.014;7.652;2023-03-01T17:13:13;3.20;99.90
64951;DHT22;51482;47.014;7.652;2023-03-01T17:15:40;2.40;99.90
64951;DHT22;51482;47.014;7.652;2023-03-01T17:18:06;3.00;99.90
64951;DHT22;51482;47.014;7.652;2023-03-01T17:20:32;2.30;99.90
64951;DHT22;51482;47.014;7.652;2023-03-01T17:22:58;2.50;99.90
64951;DHT22;51482;47.014;7.652;2023-03-01T17:25:23;2.90;99.90